sensor_id;sensor_type;location;lat;lon;timestamp;P1;durP1;ratioP1;P2;durP2;ratioP2
22770;SDS011;11552;50.786;4.332;2022-07-24T00:00:39;21.05;;;17.80;;
22770;SDS011;11552;50.786;4.332;2022-07-24T00:03:05;22.20;;;18.27;;
22770;SDS011;11552;50.786;4.332;2022-07-24T00:05:31;20.13;;;18.13;;
22770;SDS011;11552;50.786;4.332;2022-07-24T00:07:57;21.45;;;18.17;;
22770;SDS011;11552;50.786;4.332;2022-07-24T00:10:22;20.77;;;18.70;;
22770;SDS011;11552;50.786;4.332;2022-07-24T00:12:48;21.15;;;18.90;;
22770;SDS011;11552;50.786;4.332;2022-07-24T00:15:14;20.35;;;18.23;;
22770;SDS011;11552;50.786;4.332;2022-07-24T00:17:40;20.83;;;18.80;;
22770;SDS011;11552;50.786;4.332;2022-07-24T00:20:06;20.95;;;18.75;;
22770;SDS011;11552;50.786;4.332;2022-07-24T00:22:32;21.67;;;19.42;;
22770;SDS011;11552;50.786;4.332;2022-07-24T00:24:58;19.70;;;17.80;;
22770;SDS011;11552;50.786;4.332;2022-07-24T00:27:24;22.48;;;20.27;;
22770;SDS011;11552;50.786;4.332;2022-07-24T00:29:49;21.92;;;19.45;;
22770;SDS011;11552;50.786;4.332;2022-07-24T00:32:15;22.52;;;19.98;;
22770;SDS011;11552;50.786;4.332;2022-07-24T00:34:41;24.85;;;20.45;;
22770;SDS011;11552;50.786;4.332;2022-07-24T00:37:06;23.33;;;20.23;;
22770;SDS011;11552;50.786;4.332;2022-07-24T00:39:32;22.33;;;20.27;;
22770;SDS011;11552;50.786;4.332;2022-07-24T00:41:58;22.63;;;20.17;;
22770;SDS011;11552;50.786;4.332;2022-07-24T00:44:23;22.75;;;20.42;;
22770;SDS011;11552;50.786;4.332;2022-07-24T00:46:49;23.45;;;21.08;;
22770;SDS011;11552;50.786;4.332;2022-07-24T00:49:16;24.92;;;22.27;;
22770;SDS011;11552;50.786;4.332;2022-07-24T00:51:43;25.25;;;22.73;;
22770;SDS011;11552;50.786;4.332;2022-07-24T00:54:11;27.15;;;24.05;;
22770;SDS011;11552;50.786;4.332;2022-07-24T00:56:38;26.55;;;23.95;;
22770;SDS011;11552;50.786;4.332;2022-07-24T00:59:05;26.75;;;23.85;;
22770;SDS011;11552;50.786;4.332;2022-07-24T01:01:31;26.73;;;23.95;;
22770;SDS011;11552;50.786;4.332;2022-07-24T01:03:57;25.20;;;22.65;;
22770;SDS011;11552;50.786;4.332;2022-07-24T01:06:24;26.90;;;24.13;;
22770;SDS011;11552;50.786;4.332;2022-07-24T01:08:49;26.30;;;22.77;;
22770;SDS011;11552;50.786;4.332;2022-07-24T01:11:15;30.40;;;24.73;;
22770;SDS011;11552;50.786;4.332;2022-07-24T01:13:42;27.63;;;24.73;;
22770;SDS011;11552;50.786;4.332;2022-07-24T01:16:08;26.48;;;23.75;;
22770;SDS011;11552;50.786;4.332;2022-07-24T01:18:35;27.20;;;24.40;;
22770;SDS011;11552;50.786;4.332;2022-07-24T01:21:01;25.73;;;23.20;;
22770;SDS011;11552;50.786;4.332;2022-07-24T01:23:27;26.25;;;23.50;;
22770;SDS011;11552;50.786;4.332;2022-07-24T01:25:53;27.17;;;24.38;;
22770;SDS011;11552;50.786;4.332;2022-07-24T01:28:19;26.45;;;23.67;;
22770;SDS011;11552;50.786;4.332;2022-07-24T01:30:44;27.13;;;24.23;;
22770;SDS011;11552;50.786;4.332;2022-07-24T01:33:10;29.30;;;26.30;;
22770;SDS011;11552;50.786;4.332;2022-07-24T01:35:36;28.27;;;25.52;;
22770;SDS011;11552;50.786;4.332;2022-07-24T01:38:02;30.05;;;26.70;;
22770;SDS011;11552;50.786;4.332;2022-07-24T01:40:28;31.33;;;28.00;;
22770;SDS011;11552;50.786;4.332;2022-07-24T01:42:54;28.33;;;25.27;;
22770;SDS011;11552;50.786;4.332;2022-07-24T01:45:20;28.40;;;25.58;;
22770;SDS011;11552;50.786;4.332;2022-07-24T01:47:46;28.92;;;25.92;;
22770;SDS011;11552;50.786;4.332;2022-07-24T01:50:13;28.65;;;25.83;;
22770;SDS011;11552;50.786;4.332;2022-07-24T01:52:39;29.73;;;26.48;;
22770;SDS011;11552;50.786;4.332;2022-07-24T01:55:04;30.77;;;27.60;;
22770;SDS011;11552;50.786;4.332;2022-07-24T01:57:31;28.85;;;25.95;;
22770;SDS011;11552;50.786;4.332;2022-07-24T01:59:57;32.20;;;26.80;;
22770;SDS011;11552;50.786;4.332;2022-07-24T02:02:24;29.55;;;26.75;;
22770;SDS011;11552;50.786;4.332;2022-07-24T02:04:50;31.05;;;27.25;;
22770;SDS011;11552;50.786;4.332;2022-07-24T02:07:15;28.13;;;25.33;;
22770;SDS011;11552;50.786;4.332;2022-07-24T02:09:41;29.90;;;26.73;;
22770;SDS011;11552;50.786;4.332;2022-07-24T02:12:07;28.80;;;25.48;;
22770;SDS011;11552;50.786;4.332;2022-07-24T02:14:32;28.27;;;24.58;;
22770;SDS011;11552;50.786;4.332;2022-07-24T02:16:58;27.92;;;25.13;;
22770;SDS011;11552;50.786;4.332;2022-07-24T02:19:24;27.83;;;24.67;;
22770;SDS011;11552;50.786;4.332;2022-07-24T02:21:49;28.48;;;25.65;;
22770;SDS011;11552;50.786;4.332;2022-07-24T02:24:15;28.02;;;25.35;;
22770;SDS011;11552;50.786;4.332;2022-07-24T02:26:41;29.60;;;26.55;;
22770;SDS011;11552;50.786;4.332;2022-07-24T02:29:06;29.83;;;26.65;;
22770;SDS011;11552;50.786;4.332;2022-07-24T02:31:32;30.05;;;27.02;;
22770;SDS011;11552;50.786;4.332;2022-07-24T02:33:58;28.10;;;25.40;;
22770;SDS011;11552;50.786;4.332;2022-07-24T02:36:24;28.90;;;25.67;;
22770;SDS011;11552;50.786;4.332;2022-07-24T02:38:49;28.35;;;25.42;;
22770;SDS011;11552;50.786;4.332;2022-07-24T02:41:16;28.05;;;25.23;;
22770;SDS011;11552;50.786;4.332;2022-07-24T02:43:42;28.40;;;25.50;;
22770;SDS011;11552;50.786;4.332;2022-07-24T02:46:07;29.23;;;26.30;;
22770;SDS011;11552;50.786;4.332;2022-07-24T02:48:33;25.80;;;23.25;;
22770;SDS011;11552;50.786;4.332;2022-07-24T02:50:59;27.65;;;24.75;;
22770;SDS011;11552;50.786;4.332;2022-07-24T02:53:24;29.20;;;25.25;;
22770;SDS011;11552;50.786;4.332;2022-07-24T02:58:27;26.55;;;23.85;;
22770;SDS011;11552;50.786;4.332;2022-07-24T03:00:52;26.55;;;23.85;;
22770;SDS011;11552;50.786;4.332;2022-07-24T03:03:18;25.65;;;22.63;;
22770;SDS011;11552;50.786;4.332;2022-07-24T03:05:44;24.90;;;22.40;;
22770;SDS011;11552;50.786;4.332;2022-07-24T03:08:09;25.55;;;23.00;;
22770;SDS011;11552;50.786;4.332;2022-07-24T03:10:35;24.52;;;21.13;;
22770;SDS011;11552;50.786;4.332;2022-07-24T03:13:01;24.65;;;21.02;;
22770;SDS011;11552;50.786;4.332;2022-07-24T03:15:26;24.83;;;21.35;;
22770;SDS011;11552;50.786;4.332;2022-07-24T03:17:54;26.15;;;20.15;;
22770;SDS011;11552;50.786;4.332;2022-07-24T03:20:21;23.65;;;20.30;;
22770;SDS011;11552;50.786;4.332;2022-07-24T03:22:48;23.15;;;20.70;;
22770;SDS011;11552;50.786;4.332;2022-07-24T03:25:14;21.42;;;19.38;;
22770;SDS011;11552;50.786;4.332;2022-07-24T03:27:41;24.00;;;19.35;;
22770;SDS011;11552;50.786;4.332;2022-07-24T03:30:07;21.88;;;19.58;;
22770;SDS011;11552;50.786;4.332;2022-07-24T03:32:34;21.25;;;19.02;;
22770;SDS011;11552;50.786;4.332;2022-07-24T03:35:00;21.58;;;19.20;;
22770;SDS011;11552;50.786;4.332;2022-07-24T03:37:25;22.33;;;19.33;;
22770;SDS011;11552;50.786;4.332;2022-07-24T03:39:51;22.70;;;19.00;;
22770;SDS011;11552;50.786;4.332;2022-07-24T03:42:17;21.17;;;19.02;;
22770;SDS011;11552;50.786;4.332;2022-07-24T03:44:42;20.45;;;18.33;;
22770;SDS011;11552;50.786;4.332;2022-07-24T03:47:08;23.33;;;18.98;;
22770;SDS011;11552;50.786;4.332;2022-07-24T03:49:34;20.63;;;18.33;;
22770;SDS011;11552;50.786;4.332;2022-07-24T03:51:59;19.92;;;18.02;;
22770;SDS011;11552;50.786;4.332;2022-07-24T03:54:25;21.55;;;19.23;;
22770;SDS011;11552;50.786;4.332;2022-07-24T03:56:51;20.90;;;18.30;;
22770;SDS011;11552;50.786;4.332;2022-07-24T03:59:17;24.40;;;17.98;;
22770;SDS011;11552;50.786;4.332;2022-07-24T04:01:43;19.83;;;17.77;;
22770;SDS011;11552;50.786;4.332;2022-07-24T04:04:09;20.05;;;17.88;;
22770;SDS011;11552;50.786;4.332;2022-07-24T04:06:35;20.50;;;17.88;;
22770;SDS011;11552;50.786;4.332;2022-07-24T04:09:01;19.90;;;17.85;;
22770;SDS011;11552;50.786;4.332;2022-07-24T04:11:28;19.88;;;17.05;;
22770;SDS011;11552;50.786;4.332;2022-07-24T04:13:54;18.05;;;16.15;;
22770;SDS011;11552;50.786;4.332;2022-07-24T04:16:20;18.98;;;16.83;;
22770;SDS011;11552;50.786;4.332;2022-07-24T04:18:46;18.17;;;16.27;;
22770;SDS011;11552;50.786;4.332;2022-07-24T04:21:12;19.90;;;16.13;;
22770;SDS011;11552;50.786;4.332;2022-07-24T04:23:38;17.77;;;14.93;;
22770;SDS011;11552;50.786;4.332;2022-07-24T04:26:04;18.15;;;16.25;;
22770;SDS011;11552;50.786;4.332;2022-07-24T04:28:29;18.73;;;15.95;;
22770;SDS011;11552;50.786;4.332;2022-07-24T04:30:55;19.48;;;16.65;;
22770;SDS011;11552;50.786;4.332;2022-07-24T04:33:21;18.90;;;15.95;;
22770;SDS011;11552;50.786;4.332;2022-07-24T04:35:47;17.08;;;15.27;;
22770;SDS011;11552;50.786;4.332;2022-07-24T04:38:13;20.13;;;15.80;;
22770;SDS011;11552;50.786;4.332;2022-07-24T04:40:39;17.85;;;15.77;;
22770;SDS011;11552;50.786;4.332;2022-07-24T04:43:05;19.52;;;15.43;;
22770;SDS011;11552;50.786;4.332;2022-07-24T04:45:30;17.92;;;14.88;;
22770;SDS011;11552;50.786;4.332;2022-07-24T04:47:56;17.95;;;14.77;;
22770;SDS011;11552;50.786;4.332;2022-07-24T04:50:22;18.55;;;14.90;;
22770;SDS011;11552;50.786;4.332;2022-07-24T04:52:48;16.67;;;14.57;;
22770;SDS011;11552;50.786;4.332;2022-07-24T04:55:13;17.50;;;14.45;;
22770;SDS011;11552;50.786;4.332;2022-07-24T04:57:39;17.50;;;14.60;;
22770;SDS011;11552;50.786;4.332;2022-07-24T05:00:06;17.10;;;14.45;;
22770;SDS011;11552;50.786;4.332;2022-07-24T05:02:34;17.50;;;13.82;;
22770;SDS011;11552;50.786;4.332;2022-07-24T05:05:00;16.25;;;13.60;;
22770;SDS011;11552;50.786;4.332;2022-07-24T05:07:26;17.73;;;14.18;;
22770;SDS011;11552;50.786;4.332;2022-07-24T05:09:51;15.48;;;13.65;;
22770;SDS011;11552;50.786;4.332;2022-07-24T05:12:17;15.13;;;12.63;;
22770;SDS011;11552;50.786;4.332;2022-07-24T05:14:43;16.67;;;13.45;;
22770;SDS011;11552;50.786;4.332;2022-07-24T05:17:08;14.93;;;13.40;;
22770;SDS011;11552;50.786;4.332;2022-07-24T05:19:34;15.50;;;11.93;;
22770;SDS011;11552;50.786;4.332;2022-07-24T05:22:01;17.48;;;12.90;;
22770;SDS011;11552;50.786;4.332;2022-07-24T05:24:27;14.65;;;12.48;;
22770;SDS011;11552;50.786;4.332;2022-07-24T05:26:53;15.40;;;12.15;;
22770;SDS011;11552;50.786;4.332;2022-07-24T05:29:19;14.30;;;11.65;;
22770;SDS011;11552;50.786;4.332;2022-07-24T05:31:45;12.55;;;11.15;;
22770;SDS011;11552;50.786;4.332;2022-07-24T05:34:11;14.43;;;10.63;;
22770;SDS011;11552;50.786;4.332;2022-07-24T05:36:37;16.15;;;11.27;;
22770;SDS011;11552;50.786;4.332;2022-07-24T05:39:04;13.27;;;10.13;;
22770;SDS011;11552;50.786;4.332;2022-07-24T05:41:30;13.70;;;10.27;;
22770;SDS011;11552;50.786;4.332;2022-07-24T05:43:56;14.30;;;11.07;;
22770;SDS011;11552;50.786;4.332;2022-07-24T05:46:21;13.85;;;9.88;;
22770;SDS011;11552;50.786;4.332;2022-07-24T05:48:47;12.35;;;8.98;;
22770;SDS011;11552;50.786;4.332;2022-07-24T05:51:13;12.18;;;9.15;;
22770;SDS011;11552;50.786;4.332;2022-07-24T05:53:39;12.27;;;9.50;;
22770;SDS011;11552;50.786;4.332;2022-07-24T05:56:05;12.32;;;8.65;;
22770;SDS011;11552;50.786;4.332;2022-07-24T05:58:31;9.80;;;8.43;;
22770;SDS011;11552;50.786;4.332;2022-07-24T06:00:57;13.55;;;8.18;;
22770;SDS011;11552;50.786;4.332;2022-07-24T06:03:23;10.65;;;8.07;;
22770;SDS011;11552;50.786;4.332;2022-07-24T06:05:48;11.73;;;8.57;;
22770;SDS011;11552;50.786;4.332;2022-07-24T06:15:36;9.35;;;7.05;;
22770;SDS011;11552;50.786;4.332;2022-07-24T06:18:02;8.45;;;6.75;;
22770;SDS011;11552;50.786;4.332;2022-07-24T06:20:28;10.30;;;7.28;;
22770;SDS011;11552;50.786;4.332;2022-07-24T06:22:54;8.77;;;5.90;;
22770;SDS011;11552;50.786;4.332;2022-07-24T06:25:19;9.40;;;6.93;;
22770;SDS011;11552;50.786;4.332;2022-07-24T06:27:47;7.60;;;5.72;;
22770;SDS011;11552;50.786;4.332;2022-07-24T06:30:14;10.10;;;5.78;;
22770;SDS011;11552;50.786;4.332;2022-07-24T06:32:46;10.82;;;6.30;;
22770;SDS011;11552;50.786;4.332;2022-07-24T06:35:12;8.43;;;6.30;;
22770;SDS011;11552;50.786;4.332;2022-07-24T06:37:38;11.18;;;7.50;;
22770;SDS011;11552;50.786;4.332;2022-07-24T06:40:03;12.25;;;8.82;;
22770;SDS011;11552;50.786;4.332;2022-07-24T06:42:30;13.50;;;9.55;;
22770;SDS011;11552;50.786;4.332;2022-07-24T06:44:56;13.52;;;9.55;;
22770;SDS011;11552;50.786;4.332;2022-07-24T06:47:22;14.10;;;10.13;;
22770;SDS011;11552;50.786;4.332;2022-07-24T06:49:47;14.10;;;9.77;;
22770;SDS011;11552;50.786;4.332;2022-07-24T06:52:13;14.85;;;10.48;;
22770;SDS011;11552;50.786;4.332;2022-07-24T06:54:38;17.13;;;11.32;;
22770;SDS011;11552;50.786;4.332;2022-07-24T06:57:04;17.30;;;11.55;;
22770;SDS011;11552;50.786;4.332;2022-07-24T06:59:30;13.73;;;11.52;;
22770;SDS011;11552;50.786;4.332;2022-07-24T07:01:55;15.95;;;11.50;;
22770;SDS011;11552;50.786;4.332;2022-07-24T07:04:21;15.90;;;10.65;;
22770;SDS011;11552;50.786;4.332;2022-07-24T07:06:47;12.95;;;9.05;;
22770;SDS011;11552;50.786;4.332;2022-07-24T07:09:12;9.55;;;7.60;;
22770;SDS011;11552;50.786;4.332;2022-07-24T07:11:38;11.00;;;7.38;;
22770;SDS011;11552;50.786;4.332;2022-07-24T07:14:04;8.40;;;5.90;;
22770;SDS011;11552;50.786;4.332;2022-07-24T07:16:30;7.88;;;5.95;;
22770;SDS011;11552;50.786;4.332;2022-07-24T07:18:55;7.30;;;5.40;;
22770;SDS011;11552;50.786;4.332;2022-07-24T07:21:21;7.53;;;4.85;;
22770;SDS011;11552;50.786;4.332;2022-07-24T07:23:47;8.48;;;5.38;;
22770;SDS011;11552;50.786;4.332;2022-07-24T07:26:12;7.65;;;4.60;;
22770;SDS011;11552;50.786;4.332;2022-07-24T07:28:38;9.00;;;4.15;;
22770;SDS011;11552;50.786;4.332;2022-07-24T07:31:04;5.70;;;3.58;;
22770;SDS011;11552;50.786;4.332;2022-07-24T07:33:29;6.82;;;3.75;;
22770;SDS011;11552;50.786;4.332;2022-07-24T07:35:55;5.57;;;3.70;;
22770;SDS011;11552;50.786;4.332;2022-07-24T07:38:21;7.05;;;3.75;;
22770;SDS011;11552;50.786;4.332;2022-07-24T07:40:46;5.47;;;3.60;;
22770;SDS011;11552;50.786;4.332;2022-07-24T07:43:12;6.45;;;3.63;;
22770;SDS011;11552;50.786;4.332;2022-07-24T07:45:38;5.57;;;2.90;;
22770;SDS011;11552;50.786;4.332;2022-07-24T07:48:03;3.85;;;2.42;;
22770;SDS011;11552;50.786;4.332;2022-07-24T07:50:29;6.50;;;2.70;;
22770;SDS011;11552;50.786;4.332;2022-07-24T07:52:55;5.45;;;2.33;;
22770;SDS011;11552;50.786;4.332;2022-07-24T07:55:21;4.85;;;2.50;;
22770;SDS011;11552;50.786;4.332;2022-07-24T07:57:47;5.15;;;2.25;;
22770;SDS011;11552;50.786;4.332;2022-07-24T08:00:14;2.75;;;2.00;;
22770;SDS011;11552;50.786;4.332;2022-07-24T08:02:40;6.88;;;2.20;;
22770;SDS011;11552;50.786;4.332;2022-07-24T08:05:06;4.63;;;2.60;;
22770;SDS011;11552;50.786;4.332;2022-07-24T08:07:32;5.07;;;2.28;;
22770;SDS011;11552;50.786;4.332;2022-07-24T08:09:58;2.88;;;2.10;;
22770;SDS011;11552;50.786;4.332;2022-07-24T08:12:24;4.65;;;2.22;;
22770;SDS011;11552;50.786;4.332;2022-07-24T08:14:49;4.45;;;2.40;;
22770;SDS011;11552;50.786;4.332;2022-07-24T08:17:15;5.38;;;2.47;;
22770;SDS011;11552;50.786;4.332;2022-07-24T08:19:41;3.45;;;2.22;;
22770;SDS011;11552;50.786;4.332;2022-07-24T08:22:07;3.80;;;2.40;;
22770;SDS011;11552;50.786;4.332;2022-07-24T08:24:41;3.40;;;2.10;;
22770;SDS011;11552;50.786;4.332;2022-07-24T08:27:06;4.30;;;2.53;;
22770;SDS011;11552;50.786;4.332;2022-07-24T08:29:32;4.93;;;2.00;;
22770;SDS011;11552;50.786;4.332;2022-07-24T08:31:58;3.60;;;2.00;;
22770;SDS011;11552;50.786;4.332;2022-07-24T08:34:23;3.55;;;2.35;;
22770;SDS011;11552;50.786;4.332;2022-07-24T08:36:49;4.40;;;3.15;;
22770;SDS011;11552;50.786;4.332;2022-07-24T08:39:15;2.75;;;1.90;;
22770;SDS011;11552;50.786;4.332;2022-07-24T08:41:44;3.67;;;2.13;;
22770;SDS011;11552;50.786;4.332;2022-07-24T08:44:10;3.58;;;1.75;;
22770;SDS011;11552;50.786;4.332;2022-07-24T08:46:39;2.25;;;1.70;;
22770;SDS011;11552;50.786;4.332;2022-07-24T08:49:07;3.13;;;1.63;;
22770;SDS011;11552;50.786;4.332;2022-07-24T08:51:40;5.83;;;1.93;;
22770;SDS011;11552;50.786;4.332;2022-07-24T08:54:09;2.28;;;1.40;;
22770;SDS011;11552;50.786;4.332;2022-07-24T08:56:40;3.03;;;1.33;;
22770;SDS011;11552;50.786;4.332;2022-07-24T08:59:16;3.65;;;1.60;;
22770;SDS011;11552;50.786;4.332;2022-07-24T09:01:51;3.22;;;1.50;;
22770;SDS011;11552;50.786;4.332;2022-07-24T09:04:31;5.70;;;1.67;;
22770;SDS011;11552;50.786;4.332;2022-07-24T09:07:03;2.60;;;1.20;;
22770;SDS011;11552;50.786;4.332;2022-07-24T09:09:34;1.95;;;1.10;;
22770;SDS011;11552;50.786;4.332;2022-07-24T09:14:43;8.70;;;1.60;;
22770;SDS011;11552;50.786;4.332;2022-07-24T09:17:14;2.95;;;1.67;;
22770;SDS011;11552;50.786;4.332;2022-07-24T09:19:54;5.80;;;1.92;;
22770;SDS011;11552;50.786;4.332;2022-07-24T09:22:27;1.58;;;1.20;;
22770;SDS011;11552;50.786;4.332;2022-07-24T09:25:07;3.92;;;1.17;;
22770;SDS011;11552;50.786;4.332;2022-07-24T09:27:53;1.55;;;1.00;;
22770;SDS011;11552;50.786;4.332;2022-07-24T09:30:35;4.60;;;1.80;;
22770;SDS011;11552;50.786;4.332;2022-07-24T09:33:18;3.53;;;1.30;;
22770;SDS011;11552;50.786;4.332;2022-07-24T09:35:49;2.25;;;1.00;;
22770;SDS011;11552;50.786;4.332;2022-07-24T09:38:18;7.00;;;1.87;;
22770;SDS011;11552;50.786;4.332;2022-07-24T09:40:49;2.92;;;1.10;;
22770;SDS011;11552;50.786;4.332;2022-07-24T09:43:18;3.42;;;1.25;;
22770;SDS011;11552;50.786;4.332;2022-07-24T09:48:40;2.33;;;1.30;;
22770;SDS011;11552;50.786;4.332;2022-07-24T09:51:21;1.90;;;1.00;;
22770;SDS011;11552;50.786;4.332;2022-07-24T09:53:51;2.22;;;0.90;;
22770;SDS011;11552;50.786;4.332;2022-07-24T09:56:19;3.30;;;1.13;;
22770;SDS011;11552;50.786;4.332;2022-07-24T09:58:49;2.72;;;1.00;;
22770;SDS011;11552;50.786;4.332;2022-07-24T10:01:22;2.88;;;1.08;;
22770;SDS011;11552;50.786;4.332;2022-07-24T10:03:53;2.13;;;0.98;;
22770;SDS011;11552;50.786;4.332;2022-07-24T10:06:22;2.05;;;0.95;;
22770;SDS011;11552;50.786;4.332;2022-07-24T10:08:52;7.13;;;1.25;;
22770;SDS011;11552;50.786;4.332;2022-07-24T10:11:21;2.20;;;0.93;;
22770;SDS011;11552;50.786;4.332;2022-07-24T10:13:47;3.58;;;0.93;;
22770;SDS011;11552;50.786;4.332;2022-07-24T10:19:13;3.05;;;1.30;;
22770;SDS011;11552;50.786;4.332;2022-07-24T10:21:37;2.33;;;1.25;;
22770;SDS011;11552;50.786;4.332;2022-07-24T10:26:42;3.40;;;1.00;;
22770;SDS011;11552;50.786;4.332;2022-07-24T10:29:23;3.67;;;1.65;;
22770;SDS011;11552;50.786;4.332;2022-07-24T10:31:51;2.92;;;1.30;;
22770;SDS011;11552;50.786;4.332;2022-07-24T10:37:32;3.58;;;1.23;;
22770;SDS011;11552;50.786;4.332;2022-07-24T10:42:26;3.75;;;1.70;;
22770;SDS011;11552;50.786;4.332;2022-07-24T10:47:48;2.85;;;1.73;;
22770;SDS011;11552;50.786;4.332;2022-07-24T10:50:13;2.67;;;1.73;;
22770;SDS011;11552;50.786;4.332;2022-07-24T10:52:42;4.05;;;1.60;;
22770;SDS011;11552;50.786;4.332;2022-07-24T10:55:21;3.33;;;1.52;;
22770;SDS011;11552;50.786;4.332;2022-07-24T10:57:58;2.85;;;1.85;;
22770;SDS011;11552;50.786;4.332;2022-07-24T11:00:49;3.55;;;1.90;;
22770;SDS011;11552;50.786;4.332;2022-07-24T11:03:26;3.45;;;2.05;;
22770;SDS011;11552;50.786;4.332;2022-07-24T11:06:11;3.83;;;1.85;;
22770;SDS011;11552;50.786;4.332;2022-07-24T11:08:40;4.90;;;2.20;;
22770;SDS011;11552;50.786;4.332;2022-07-24T11:11:14;4.15;;;2.47;;
22770;SDS011;11552;50.786;4.332;2022-07-24T11:13:46;3.22;;;1.98;;
22770;SDS011;11552;50.786;4.332;2022-07-24T11:21:14;3.40;;;2.30;;
22770;SDS011;11552;50.786;4.332;2022-07-24T11:26:48;7.65;;;2.30;;
22770;SDS011;11552;50.786;4.332;2022-07-24T11:31:42;4.88;;;2.45;;
22770;SDS011;11552;50.786;4.332;2022-07-24T11:34:09;3.83;;;2.40;;
22770;SDS011;11552;50.786;4.332;2022-07-24T11:36:36;5.80;;;2.70;;
22770;SDS011;11552;50.786;4.332;2022-07-24T11:39:04;7.85;;;2.97;;
22770;SDS011;11552;50.786;4.332;2022-07-24T11:41:45;3.58;;;2.60;;
22770;SDS011;11552;50.786;4.332;2022-07-24T11:44:11;4.75;;;2.42;;
22770;SDS011;11552;50.786;4.332;2022-07-24T11:46:48;3.33;;;2.63;;
22770;SDS011;11552;50.786;4.332;2022-07-24T11:49:14;3.70;;;2.53;;
22770;SDS011;11552;50.786;4.332;2022-07-24T11:51:41;3.22;;;2.60;;
22770;SDS011;11552;50.786;4.332;2022-07-24T11:54:07;6.25;;;2.83;;
22770;SDS011;11552;50.786;4.332;2022-07-24T11:56:34;5.25;;;2.80;;
22770;SDS011;11552;50.786;4.332;2022-07-24T11:59:00;5.10;;;3.00;;
22770;SDS011;11552;50.786;4.332;2022-07-24T12:01:26;7.35;;;3.38;;
22770;SDS011;11552;50.786;4.332;2022-07-24T12:03:52;3.60;;;2.70;;
22770;SDS011;11552;50.786;4.332;2022-07-24T12:06:20;6.00;;;2.72;;
22770;SDS011;11552;50.786;4.332;2022-07-24T12:08:45;3.40;;;2.80;;
22770;SDS011;11552;50.786;4.332;2022-07-24T12:11:11;8.10;;;2.55;;
22770;SDS011;11552;50.786;4.332;2022-07-24T12:13:46;5.15;;;2.67;;
22770;SDS011;11552;50.786;4.332;2022-07-24T12:16:21;7.18;;;2.80;;
22770;SDS011;11552;50.786;4.332;2022-07-24T12:18:48;4.78;;;2.60;;
22770;SDS011;11552;50.786;4.332;2022-07-24T12:21:14;5.55;;;3.00;;
22770;SDS011;11552;50.786;4.332;2022-07-24T12:23:40;2.85;;;2.28;;
22770;SDS011;11552;50.786;4.332;2022-07-24T12:26:05;5.65;;;2.67;;
22770;SDS011;11552;50.786;4.332;2022-07-24T12:28:31;4.43;;;2.55;;
22770;SDS011;11552;50.786;4.332;2022-07-24T12:30:57;3.60;;;2.55;;
22770;SDS011;11552;50.786;4.332;2022-07-24T12:33:33;5.13;;;2.50;;
22770;SDS011;11552;50.786;4.332;2022-07-24T12:36:06;4.00;;;2.17;;
22770;SDS011;11552;50.786;4.332;2022-07-24T12:38:37;4.30;;;2.30;;
22770;SDS011;11552;50.786;4.332;2022-07-24T12:43:52;3.13;;;2.65;;
22770;SDS011;11552;50.786;4.332;2022-07-24T12:46:57;4.93;;;2.67;;
22770;SDS011;11552;50.786;4.332;2022-07-24T12:49:51;4.03;;;2.40;;
22770;SDS011;11552;50.786;4.332;2022-07-24T13:05:17;4.60;;;2.70;;
22770;SDS011;11552;50.786;4.332;2022-07-24T13:08:30;4.72;;;2.20;;
22770;SDS011;11552;50.786;4.332;2022-07-24T13:11:37;5.88;;;2.40;;
22770;SDS011;11552;50.786;4.332;2022-07-24T13:14:10;5.50;;;2.78;;
22770;SDS011;11552;50.786;4.332;2022-07-24T13:16:38;4.32;;;2.47;;
22770;SDS011;11552;50.786;4.332;2022-07-24T13:19:05;4.88;;;2.83;;
22770;SDS011;11552;50.786;4.332;2022-07-24T13:21:32;4.85;;;2.70;;
22770;SDS011;11552;50.786;4.332;2022-07-24T13:23:58;3.92;;;2.78;;
22770;SDS011;11552;50.786;4.332;2022-07-24T13:26:24;4.35;;;2.88;;
22770;SDS011;11552;50.786;4.332;2022-07-24T13:28:51;4.32;;;2.60;;
22770;SDS011;11552;50.786;4.332;2022-07-24T13:31:16;5.20;;;2.85;;
22770;SDS011;11552;50.786;4.332;2022-07-24T13:33:45;5.57;;;2.80;;
22770;SDS011;11552;50.786;4.332;2022-07-24T13:36:12;5.82;;;2.90;;
22770;SDS011;11552;50.786;4.332;2022-07-24T13:38:38;4.47;;;2.83;;
22770;SDS011;11552;50.786;4.332;2022-07-24T13:41:03;3.15;;;2.58;;
22770;SDS011;11552;50.786;4.332;2022-07-24T13:43:29;4.13;;;2.60;;
22770;SDS011;11552;50.786;4.332;2022-07-24T13:45:55;6.55;;;2.80;;
22770;SDS011;11552;50.786;4.332;2022-07-24T13:48:20;5.50;;;2.70;;
22770;SDS011;11552;50.786;4.332;2022-07-24T13:50:47;7.25;;;2.70;;
22770;SDS011;11552;50.786;4.332;2022-07-24T13:53:12;3.53;;;2.50;;
22770;SDS011;11552;50.786;4.332;2022-07-24T13:55:38;3.10;;;2.55;;
22770;SDS011;11552;50.786;4.332;2022-07-24T13:58:04;5.07;;;3.20;;
22770;SDS011;11552;50.786;4.332;2022-07-24T14:00:29;3.30;;;2.10;;
22770;SDS011;11552;50.786;4.332;2022-07-24T14:02:55;4.25;;;2.58;;
22770;SDS011;11552;50.786;4.332;2022-07-24T14:05:21;2.88;;;2.40;;
22770;SDS011;11552;50.786;4.332;2022-07-24T14:07:47;5.32;;;2.80;;
22770;SDS011;11552;50.786;4.332;2022-07-24T14:10:13;3.95;;;2.75;;
22770;SDS011;11552;50.786;4.332;2022-07-24T14:12:39;4.72;;;2.80;;
22770;SDS011;11552;50.786;4.332;2022-07-24T14:15:05;3.75;;;2.58;;
22770;SDS011;11552;50.786;4.332;2022-07-24T14:17:31;3.97;;;3.00;;
22770;SDS011;11552;50.786;4.332;2022-07-24T14:19:57;3.40;;;2.60;;
22770;SDS011;11552;50.786;4.332;2022-07-24T14:22:23;8.02;;;2.80;;
22770;SDS011;11552;50.786;4.332;2022-07-24T14:24:48;5.15;;;2.67;;
22770;SDS011;11552;50.786;4.332;2022-07-24T14:27:14;5.10;;;3.00;;
22770;SDS011;11552;50.786;4.332;2022-07-24T14:29:39;6.70;;;3.30;;
22770;SDS011;11552;50.786;4.332;2022-07-24T14:32:05;5.88;;;3.22;;
22770;SDS011;11552;50.786;4.332;2022-07-24T14:34:31;5.30;;;2.97;;
22770;SDS011;11552;50.786;4.332;2022-07-24T14:36:56;4.90;;;2.92;;
22770;SDS011;11552;50.786;4.332;2022-07-24T14:39:22;3.65;;;3.03;;
22770;SDS011;11552;50.786;4.332;2022-07-24T14:41:47;5.15;;;3.50;;
22770;SDS011;11552;50.786;4.332;2022-07-24T14:44:13;5.35;;;3.55;;
22770;SDS011;11552;50.786;4.332;2022-07-24T14:46:39;5.13;;;3.33;;
22770;SDS011;11552;50.786;4.332;2022-07-24T14:49:06;4.30;;;3.42;;
22770;SDS011;11552;50.786;4.332;2022-07-24T14:51:32;9.02;;;3.50;;
22770;SDS011;11552;50.786;4.332;2022-07-24T14:53:57;5.50;;;3.55;;
22770;SDS011;11552;50.786;4.332;2022-07-24T14:56:23;4.20;;;3.15;;
22770;SDS011;11552;50.786;4.332;2022-07-24T14:58:49;5.22;;;3.22;;
22770;SDS011;11552;50.786;4.332;2022-07-24T15:01:14;5.97;;;3.17;;
22770;SDS011;11552;50.786;4.332;2022-07-24T15:03:40;5.38;;;3.75;;
22770;SDS011;11552;50.786;4.332;2022-07-24T15:06:06;4.45;;;3.35;;
22770;SDS011;11552;50.786;4.332;2022-07-24T15:08:32;7.32;;;3.50;;
22770;SDS011;11552;50.786;4.332;2022-07-24T15:10:58;3.88;;;3.30;;
22770;SDS011;11552;50.786;4.332;2022-07-24T15:13:23;5.40;;;3.10;;
22770;SDS011;11552;50.786;4.332;2022-07-24T15:15:49;3.72;;;2.97;;
22770;SDS011;11552;50.786;4.332;2022-07-24T15:18:16;4.35;;;3.13;;
22770;SDS011;11552;50.786;4.332;2022-07-24T15:20:42;6.55;;;3.42;;
22770;SDS011;11552;50.786;4.332;2022-07-24T15:23:08;4.70;;;3.13;;
22770;SDS011;11552;50.786;4.332;2022-07-24T15:25:34;4.40;;;3.30;;
22770;SDS011;11552;50.786;4.332;2022-07-24T15:27:59;4.97;;;3.60;;
22770;SDS011;11552;50.786;4.332;2022-07-24T15:30:25;5.70;;;3.10;;
22770;SDS011;11552;50.786;4.332;2022-07-24T15:32:51;5.97;;;3.28;;